createdAt,value
2023-05-09T00:01:31.716Z,22.30
2023-05-09T00:04:00.244Z,21.43
2023-05-09T00:06:27.796Z,20.13
2023-05-09T00:08:55.777Z,21.20
2023-05-09T00:11:22.660Z,20.93
2023-05-09T00:13:50.733Z,20.70
2023-05-09T00:16:18.553Z,20.10
2023-05-09T00:18:45.376Z,21.17
2023-05-09T00:21:12.155Z,21.67
2023-05-09T00:23:39.122Z,22.00
2023-05-09T00:26:05.971Z,22.60
2023-05-09T00:28:32.882Z,22.40
2023-05-09T00:30:59.601Z,20.93
2023-05-09T00:33:26.979Z,21.70
2023-05-09T00:35:56.545Z,21.93
2023-05-09T00:38:26.351Z,23.37
2023-05-09T00:40:53.101Z,22.10
2023-05-09T00:43:19.859Z,21.47
2023-05-09T00:45:47.554Z,22.90
2023-05-09T00:48:16.169Z,22.30
2023-05-09T00:50:43.028Z,22.60
2023-05-09T00:53:10.238Z,20.97
2023-05-09T00:55:37.016Z,23.27
2023-05-09T00:58:04.154Z,21.67
2023-05-09T01:00:30.854Z,22.87
2023-05-09T01:02:57.766Z,23.43
2023-05-09T01:05:38.258Z,23.17
2023-05-09T01:08:23.577Z,22.33
2023-05-09T01:10:58.513Z,24.47
2023-05-09T01:13:36.592Z,24.70
2023-05-09T01:16:09.238Z,22.63
2023-05-09T01:18:45.862Z,21.27
2023-05-09T01:21:20.607Z,23.17
2023-05-09T01:24:09.890Z,24.93
2023-05-09T01:26:58.510Z,23.17
2023-05-09T01:29:47.027Z,24.20
2023-05-09T01:32:24.090Z,23.20
2023-05-09T01:34:54.436Z,22.93
2023-05-09T01:37:28.572Z,24.60
2023-05-09T01:39:58.855Z,24.17
2023-05-09T01:42:27.018Z,26.10
2023-05-09T01:44:54.778Z,25.03
2023-05-09T01:47:22.997Z,25.57
2023-05-09T01:49:51.242Z,26.00
2023-05-09T01:52:19.943Z,26.20
2023-05-09T01:54:48.011Z,26.10
2023-05-09T01:57:15.131Z,24.80
2023-05-09T01:59:44.674Z,27.27
2023-05-09T02:02:12.210Z,27.80
2023-05-09T02:04:41.681Z,26.20
2023-05-09T02:07:09.494Z,27.43
2023-05-09T02:09:36.469Z,25.73
2023-05-09T02:12:04.654Z,26.00
2023-05-09T02:14:31.711Z,27.63
2023-05-09T02:17:00.660Z,27.20
2023-05-09T02:19:28.404Z,25.67
2023-05-09T02:21:55.326Z,24.70
2023-05-09T02:24:22.238Z,26.27
2023-05-09T02:26:49.067Z,24.03
2023-05-09T02:29:19.748Z,25.20
2023-05-09T02:31:48.780Z,25.13
2023-05-09T02:34:17.180Z,27.03
2023-05-09T02:36:44.499Z,25.40
2023-05-09T02:39:11.831Z,24.47
2023-05-09T02:41:38.615Z,25.80
2023-05-09T02:44:05.437Z,25.00
2023-05-09T02:46:33.396Z,27.17
2023-05-09T02:49:00.149Z,24.73
2023-05-09T02:51:26.928Z,24.50
2023-05-09T02:53:53.673Z,25.20
2023-05-09T02:56:20.803Z,23.20
2023-05-09T02:58:51.386Z,22.97
2023-05-09T03:01:18.477Z,26.23
2023-05-09T03:03:46.167Z,26.03
2023-05-09T03:06:14.231Z,25.20
2023-05-09T03:08:41.005Z,25.33
2023-05-09T03:11:07.760Z,26.80
2023-05-09T03:13:34.551Z,26.97
2023-05-09T03:16:01.445Z,27.23
2023-05-09T03:18:28.234Z,27.27
2023-05-09T03:20:55.007Z,27.67
2023-05-09T03:23:21.723Z,26.00
2023-05-09T03:25:48.507Z,23.80
2023-05-09T03:28:15.320Z,27.10
2023-05-09T03:30:41.983Z,26.43
2023-05-09T03:33:08.835Z,25.27
2023-05-09T03:35:35.631Z,24.70
2023-05-09T03:38:02.314Z,27.27
2023-05-09T03:40:29.094Z,28.50
2023-05-09T03:42:55.861Z,27.97
2023-05-09T03:45:22.573Z,27.20
2023-05-09T03:47:49.327Z,24.23
2023-05-09T03:50:16.299Z,26.40
2023-05-09T03:52:43.080Z,26.30
2023-05-09T03:55:10.099Z,27.50
2023-05-09T03:57:36.910Z,25.83
2023-05-09T04:00:08.176Z,26.60
2023-05-09T04:02:35.259Z,27.80
2023-05-09T04:05:02.275Z,27.70
2023-05-09T04:07:29.389Z,25.17
2023-05-09T04:09:56.199Z,28.23
2023-05-09T04:12:22.915Z,27.33
2023-05-09T04:14:49.664Z,25.77
2023-05-09T04:17:16.430Z,25.27
2023-05-09T04:19:43.431Z,26.20
2023-05-09T04:22:10.215Z,26.60
2023-05-09T04:24:36.964Z,25.50
2023-05-09T04:27:03.992Z,28.23
2023-05-09T04:29:30.704Z,27.10
2023-05-09T04:31:58.098Z,25.90
2023-05-09T04:34:26.556Z,28.13
2023-05-09T04:36:53.586Z,28.13
2023-05-09T04:39:20.337Z,28.70
2023-05-09T04:41:47.870Z,27.80
2023-05-09T04:44:14.680Z,30.00
2023-05-09T04:46:41.512Z,29.50
2023-05-09T04:49:08.426Z,29.20
2023-05-09T04:51:35.234Z,27.73
2023-05-09T04:54:01.904Z,25.83
2023-05-09T04:56:28.649Z,28.07
2023-05-09T04:58:55.690Z,28.57
2023-05-09T05:01:22.475Z,31.00
2023-05-09T05:03:49.268Z,31.27
2023-05-09T05:06:15.972Z,28.37
2023-05-09T05:08:43.207Z,28.63
2023-05-09T05:11:09.978Z,29.10
2023-05-09T05:13:36.732Z,28.93
2023-05-09T05:16:03.649Z,26.03
2023-05-09T05:18:30.501Z,27.70
2023-05-09T05:20:57.375Z,26.50
2023-05-09T05:23:24.048Z,30.10
2023-05-09T05:25:50.923Z,25.50
2023-05-09T05:28:17.754Z,28.70
2023-05-09T05:30:44.642Z,28.67
2023-05-09T05:33:11.492Z,27.17
2023-05-09T05:35:38.420Z,27.50
2023-05-09T05:38:05.395Z,29.10
2023-05-09T05:40:32.292Z,28.83
2023-05-09T05:42:59.149Z,28.53
2023-05-09T05:45:26.280Z,29.27
2023-05-09T05:47:53.209Z,27.57
2023-05-09T05:50:20.403Z,29.67
2023-05-09T05:52:47.332Z,26.93
2023-05-09T05:55:14.303Z,29.17
2023-05-09T05:57:41.291Z,26.70
2023-05-09T06:00:11.066Z,30.00
2023-05-09T06:02:38.348Z,29.43
2023-05-09T06:05:07.169Z,31.50
2023-05-09T06:07:33.925Z,27.93
2023-05-09T06:10:00.648Z,29.60
2023-05-09T06:12:28.082Z,30.00
2023-05-09T06:14:55.012Z,28.60
2023-05-09T06:17:24.197Z,29.47
2023-05-09T06:19:50.915Z,32.50
2023-05-09T06:22:17.659Z,28.03
2023-05-09T06:24:44.388Z,30.07
2023-05-09T06:27:11.355Z,29.00
2023-05-09T06:29:38.247Z,30.47
2023-05-09T06:32:05.314Z,31.23
2023-05-09T06:34:32.078Z,31.57
2023-05-09T06:36:58.920Z,30.17
2023-05-09T06:39:25.718Z,30.60
2023-05-09T06:41:52.420Z,30.23
2023-05-09T06:44:19.196Z,30.70
2023-05-09T06:46:46.020Z,29.27
2023-05-09T06:49:14.182Z,29.43
2023-05-09T06:51:40.929Z,30.17
2023-05-09T06:54:07.644Z,26.60
2023-05-09T06:56:34.455Z,30.03
2023-05-09T06:59:01.190Z,28.53
2023-05-09T07:01:27.951Z,30.13
2023-05-09T07:03:54.701Z,28.10
2023-05-09T07:06:21.498Z,31.73
2023-05-09T07:08:48.243Z,29.93
2023-05-09T07:11:14.961Z,27.83
2023-05-09T07:13:41.757Z,27.60
2023-05-09T07:16:08.507Z,28.20
2023-05-09T07:18:35.234Z,26.27
2023-05-09T07:21:01.981Z,27.67
2023-05-09T07:23:28.763Z,25.63
2023-05-09T07:25:58.878Z,24.87
2023-05-09T07:28:26.105Z,22.87
2023-05-09T07:30:54.961Z,23.83
2023-05-09T07:33:21.754Z,25.53
2023-05-09T07:35:48.551Z,26.60
2023-05-09T07:38:15.381Z,24.63
2023-05-09T07:40:42.132Z,26.30
2023-05-09T07:43:08.980Z,23.23
2023-05-09T07:45:36.461Z,21.97
2023-05-09T07:48:03.466Z,22.63
2023-05-09T07:50:30.522Z,23.60
2023-05-09T07:52:57.387Z,22.27
2023-05-09T07:55:24.167Z,21.83
2023-05-09T07:57:50.878Z,19.47
2023-05-09T08:00:19.507Z,20.27
2023-05-09T08:02:46.618Z,21.40
2023-05-09T08:05:13.999Z,19.37
2023-05-09T08:07:41.246Z,18.67
2023-05-09T08:10:09.186Z,16.53
2023-05-09T08:12:36.012Z,19.17
2023-05-09T08:15:03.177Z,17.27
2023-05-09T08:17:29.900Z,15.77
2023-05-09T08:19:56.707Z,18.20
2023-05-09T08:22:24.688Z,18.03
2023-05-09T08:24:51.450Z,18.17
2023-05-09T08:27:18.279Z,17.07
2023-05-09T08:29:45.482Z,17.80
2023-05-09T08:32:12.336Z,18.53
2023-05-09T08:34:39.030Z,19.57
2023-05-09T08:37:05.896Z,18.97
2023-05-09T08:39:34.989Z,16.80
2023-05-09T08:42:02.747Z,16.90
2023-05-09T08:44:30.686Z,18.93
2023-05-09T08:47:00.894Z,18.97
2023-05-09T08:49:28.165Z,18.30
2023-05-09T08:51:55.987Z,20.13
2023-05-09T08:54:23.786Z,18.60
2023-05-09T08:56:51.605Z,22.83
2023-05-09T08:59:19.380Z,21.83
2023-05-09T09:01:46.324Z,17.13
2023-05-09T09:04:13.193Z,20.07
2023-05-09T09:06:41.002Z,20.77
2023-05-09T09:09:09.176Z,22.17
2023-05-09T09:11:37.409Z,20.73
2023-05-09T09:14:13.302Z,20.23
2023-05-09T09:16:43.605Z,17.30
2023-05-09T09:19:13.039Z,22.17
2023-05-09T09:21:42.860Z,18.13
2023-05-09T09:24:12.506Z,19.37
2023-05-09T09:26:49.619Z,18.33
2023-05-09T09:29:18.555Z,15.60
2023-05-09T09:31:47.192Z,14.40
2023-05-09T09:34:21.311Z,16.60
2023-05-09T09:36:48.590Z,12.37
2023-05-09T09:39:15.860Z,16.03
2023-05-09T09:41:44.589Z,15.20
2023-05-09T09:44:13.958Z,16.30
2023-05-09T09:46:55.048Z,13.73
2023-05-09T09:49:24.447Z,11.63
2023-05-09T09:51:56.089Z,13.77
2023-05-09T09:54:22.993Z,12.00
2023-05-09T09:56:54.857Z,14.90
2023-05-09T09:59:24.960Z,14.37
2023-05-09T10:01:55.569Z,16.00
2023-05-09T10:04:22.832Z,16.63
2023-05-09T10:06:57.797Z,14.77
2023-05-09T10:09:25.891Z,13.67
2023-05-09T10:11:53.785Z,14.40
2023-05-09T10:14:23.169Z,15.27
2023-05-09T10:16:52.121Z,13.70
2023-05-09T10:19:20.997Z,15.03
2023-05-09T10:21:58.656Z,14.63
2023-05-09T10:24:34.920Z,14.40
2023-05-09T10:27:09.670Z,12.57
2023-05-09T10:29:41.569Z,13.87
2023-05-09T10:32:37.126Z,13.43
2023-05-09T10:35:07.031Z,14.03
2023-05-09T10:37:34.108Z,12.10
2023-05-09T10:40:04.250Z,14.87
2023-05-09T10:42:31.794Z,17.27
2023-05-09T10:44:58.748Z,16.03
2023-05-09T10:47:29.653Z,15.20
2023-05-09T10:49:57.545Z,15.13
2023-05-09T10:52:24.552Z,15.50
2023-05-09T10:55:05.258Z,14.57
2023-05-09T10:57:32.367Z,14.07
2023-05-09T11:00:00.479Z,13.43
2023-05-09T11:02:31.072Z,13.83
2023-05-09T11:05:38.874Z,14.23
2023-05-09T11:08:42.110Z,14.20
2023-05-09T11:11:25.466Z,14.40
2023-05-09T11:13:58.072Z,13.40
2023-05-09T11:16:26.749Z,15.03
2023-05-09T11:18:53.692Z,13.00
2023-05-09T11:21:21.019Z,13.93
2023-05-09T11:23:48.661Z,13.00
2023-05-09T11:26:16.602Z,12.70
2023-05-09T11:28:52.716Z,14.37
2023-05-09T11:31:19.664Z,14.93
2023-05-09T11:33:49.199Z,15.00
2023-05-09T11:36:30.015Z,12.37
2023-05-09T11:39:04.464Z,12.50
2023-05-09T11:41:31.728Z,12.10
2023-05-09T11:44:00.403Z,12.73
2023-05-09T11:46:27.686Z,12.40
2023-05-09T11:48:54.592Z,10.80
2023-05-09T11:51:21.399Z,9.97
2023-05-09T11:53:51.482Z,8.93
2023-05-09T11:56:18.584Z,10.17
2023-05-09T11:58:46.825Z,10.80
2023-05-09T12:01:13.699Z,9.90
2023-05-09T12:03:46.958Z,10.07
2023-05-09T12:06:21.038Z,9.63
2023-05-09T12:08:48.086Z,8.30
2023-05-09T12:11:15.658Z,9.00
2023-05-09T12:13:49.533Z,8.77
2023-05-09T12:16:18.217Z,10.10
2023-05-09T12:18:49.569Z,6.80
2023-05-09T12:21:18.107Z,8.90
2023-05-09T12:23:47.894Z,9.30
2023-05-09T12:26:16.827Z,9.03
2023-05-09T12:28:43.888Z,7.23
2023-05-09T12:31:11.409Z,7.93
2023-05-09T12:33:39.546Z,9.30
2023-05-09T12:36:10.171Z,9.63
2023-05-09T12:38:37.224Z,8.47
2023-05-09T12:41:18.156Z,8.10
2023-05-09T12:43:50.077Z,6.80
2023-05-09T12:46:21.077Z,5.50
2023-05-09T12:48:49.390Z,7.73
2023-05-09T12:51:22.979Z,7.03
2023-05-09T12:53:50.130Z,7.50
2023-05-09T12:56:19.598Z,6.47
2023-05-09T12:58:54.397Z,5.90
2023-05-09T13:01:23.204Z,6.17
2023-05-09T13:04:04.089Z,5.37
2023-05-09T13:06:31.008Z,4.53
2023-05-09T13:09:02.864Z,3.73
2023-05-09T13:11:30.084Z,3.40
2023-05-09T13:13:57.090Z,3.80
2023-05-09T13:16:24.215Z,4.40
2023-05-09T13:18:51.048Z,4.43
2023-05-09T13:21:17.905Z,4.50
2023-05-09T13:23:45.534Z,4.43
2023-05-09T13:26:12.502Z,4.87
2023-05-09T13:28:39.297Z,5.87
2023-05-09T13:31:06.923Z,3.50
2023-05-09T13:33:34.033Z,4.53
2023-05-09T13:36:00.966Z,4.93
2023-05-09T13:38:30.890Z,3.70
2023-05-09T13:40:58.133Z,3.43
2023-05-09T13:43:24.936Z,3.83
2023-05-09T13:45:51.770Z,2.60
2023-05-09T13:48:18.602Z,3.50
2023-05-09T13:50:45.799Z,2.80
2023-05-09T13:53:12.687Z,4.07
2023-05-09T13:55:39.413Z,3.03
2023-05-09T13:58:06.473Z,3.87
2023-05-09T14:00:33.672Z,3.30
2023-05-09T14:03:02.557Z,2.93
2023-05-09T14:05:31.745Z,2.87
2023-05-09T14:07:58.491Z,2.97
2023-05-09T14:10:26.868Z,4.80
2023-05-09T14:12:54.189Z,4.50
2023-05-09T14:15:21.047Z,4.37
2023-05-09T14:17:47.920Z,3.90
2023-05-09T14:20:16.253Z,2.93
2023-05-09T14:22:43.319Z,2.90
2023-05-09T14:25:10.169Z,3.40
2023-05-09T14:27:37.236Z,2.40
2023-05-09T14:30:04.780Z,4.80
2023-05-09T14:32:31.682Z,5.60
2023-05-09T14:34:58.597Z,4.50
2023-05-09T14:37:25.385Z,3.90
2023-05-09T14:39:52.113Z,4.63
2023-05-09T14:42:19.766Z,3.83
2023-05-09T14:44:47.399Z,3.20
2023-05-09T14:47:14.220Z,4.23
2023-05-09T14:49:41.476Z,4.30
2023-05-09T14:52:08.277Z,3.53
2023-05-09T14:54:35.182Z,3.30
2023-05-09T14:57:04.607Z,3.43
2023-05-09T14:59:31.760Z,3.63
2023-05-09T15:01:58.680Z,3.00
2023-05-09T15:04:30.423Z,3.17
2023-05-09T15:06:58.824Z,3.60
2023-05-09T15:09:25.806Z,2.10
2023-05-09T15:11:52.545Z,2.07
2023-05-09T15:14:19.346Z,2.17
2023-05-09T15:16:46.552Z,2.07
2023-05-09T15:19:14.464Z,2.40
2023-05-09T15:21:41.465Z,2.10
2023-05-09T15:24:08.381Z,1.80
2023-05-09T15:26:35.127Z,2.23
2023-05-09T15:29:02.317Z,1.80
2023-05-09T15:31:33.013Z,2.20
2023-05-09T15:34:00.665Z,1.70
2023-05-09T15:36:29.941Z,2.03
2023-05-09T15:38:56.711Z,3.57
2023-05-09T15:41:23.434Z,2.50
2023-05-09T15:43:50.412Z,3.50
2023-05-09T15:46:17.623Z,2.97
2023-05-09T15:48:44.415Z,2.80
2023-05-09T15:51:11.484Z,1.77
2023-05-09T15:53:38.204Z,2.00
2023-05-09T15:56:05.202Z,2.73
2023-05-09T15:58:32.022Z,1.80
2023-05-09T16:00:58.859Z,2.00
2023-05-09T16:03:25.881Z,2.23
2023-05-09T16:05:53.104Z,1.90
2023-05-09T16:08:19.903Z,2.97
2023-05-09T16:10:48.997Z,2.53
2023-05-09T16:13:17.849Z,4.50
2023-05-09T16:15:45.463Z,3.47
2023-05-09T16:18:12.304Z,3.53
2023-05-09T16:20:39.151Z,3.90
2023-05-09T16:23:05.920Z,3.53
2023-05-09T16:25:35.220Z,3.23
2023-05-09T16:28:02.263Z,3.03
2023-05-09T16:30:29.472Z,3.90
2023-05-09T16:32:56.423Z,2.90
2023-05-09T16:35:23.265Z,4.30
2023-05-09T16:37:50.129Z,3.23
2023-05-09T16:40:18.446Z,5.57
2023-05-09T16:42:45.302Z,3.33
2023-05-09T16:45:12.177Z,5.20
2023-05-09T16:47:38.982Z,3.53
2023-05-09T16:50:06.369Z,3.63
2023-05-09T16:52:33.128Z,4.07
2023-05-09T16:54:59.879Z,3.40
2023-05-09T16:57:26.655Z,3.70
2023-05-09T16:59:53.949Z,3.70
2023-05-09T17:02:20.727Z,4.37
2023-05-09T17:04:47.667Z,3.90
2023-05-09T17:07:15.587Z,4.83
2023-05-09T17:09:43.148Z,4.63
2023-05-09T17:12:16.416Z,6.60
2023-05-09T17:14:43.405Z,3.50
2023-05-09T17:17:10.317Z,4.70
2023-05-09T17:19:37.617Z,5.17
2023-05-09T17:22:05.854Z,6.93
2023-05-09T17:24:32.665Z,6.83
2023-05-09T17:26:59.809Z,4.73
2023-05-09T17:29:29.163Z,6.13
2023-05-09T17:32:02.281Z,5.27
2023-05-09T17:34:29.298Z,4.80
2023-05-09T17:36:56.305Z,5.50
2023-05-09T17:39:23.363Z,4.60
2023-05-09T17:41:50.195Z,5.20
2023-05-09T17:44:16.953Z,4.63
2023-05-09T17:46:44.176Z,5.57
2023-05-09T17:49:13.939Z,9.57
2023-05-09T17:51:41.775Z,9.53
2023-05-09T17:54:08.771Z,8.63
2023-05-09T17:56:35.596Z,13.33
2023-05-09T17:59:02.828Z,8.20
2023-05-09T18:01:29.616Z,9.70
2023-05-09T18:03:57.088Z,6.00
2023-05-09T18:06:24.231Z,6.97
2023-05-09T18:08:51.156Z,6.83
2023-05-09T18:11:17.906Z,4.60
2023-05-09T18:13:44.679Z,5.10
2023-05-09T18:16:11.510Z,8.93
2023-05-09T18:18:38.336Z,5.77
2023-05-09T18:21:05.479Z,3.40
2023-05-09T18:23:32.338Z,2.20
2023-05-09T18:25:59.288Z,2.90
2023-05-09T18:28:26.583Z,4.57
2023-05-09T18:31:00.582Z,2.60
2023-05-09T18:33:28.677Z,2.57
2023-05-09T18:35:55.792Z,2.67
2023-05-09T18:38:22.941Z,2.77
2023-05-09T18:40:52.338Z,2.67
2023-05-09T18:43:21.856Z,2.47
2023-05-09T18:45:49.444Z,3.33
2023-05-09T18:48:17.939Z,4.70
2023-05-09T18:50:45.464Z,4.03
2023-05-09T18:53:12.848Z,2.70
2023-05-09T18:55:40.640Z,4.10
2023-05-09T18:58:10.411Z,2.20
2023-05-09T19:00:37.960Z,4.30
2023-05-09T19:03:05.642Z,2.40
2023-05-09T19:05:33.650Z,2.27
2023-05-09T19:08:01.969Z,3.90
2023-05-09T19:10:30.860Z,3.27
2023-05-09T19:12:59.320Z,2.77
2023-05-09T19:15:27.191Z,2.73
2023-05-09T19:17:55.070Z,2.37
2023-05-09T19:20:24.704Z,3.57
2023-05-09T19:22:52.751Z,5.30
2023-05-09T19:25:20.825Z,6.10
2023-05-09T19:27:50.709Z,3.57
2023-05-09T19:30:18.725Z,5.33
2023-05-09T19:32:46.637Z,2.50
2023-05-09T19:35:14.498Z,3.37
2023-05-09T19:37:42.939Z,3.97
2023-05-09T19:40:11.871Z,6.17
2023-05-09T19:42:42.518Z,3.63
2023-05-09T19:45:11.377Z,3.33
2023-05-09T19:47:39.592Z,3.83
2023-05-09T19:50:09.398Z,3.13
2023-05-09T19:52:37.833Z,2.63
2023-05-09T19:55:08.324Z,5.10
2023-05-09T19:57:36.066Z,3.53
2023-05-09T20:00:05.671Z,3.57
2023-05-09T20:02:35.349Z,2.87
2023-05-09T20:05:04.241Z,4.07
2023-05-09T20:07:32.365Z,5.77
2023-05-09T20:10:00.431Z,3.23
2023-05-09T20:12:30.210Z,2.63
2023-05-09T20:14:59.521Z,2.60
2023-05-09T20:17:27.637Z,4.43
2023-05-09T20:19:58.268Z,2.90
2023-05-09T20:22:27.786Z,4.05
2023-05-09T20:24:56.817Z,3.20
2023-05-09T20:27:25.015Z,3.13
2023-05-09T20:29:53.028Z,5.03
2023-05-09T20:32:23.060Z,5.27
2023-05-09T20:34:50.866Z,3.50
2023-05-09T20:37:18.529Z,4.63
2023-05-09T20:39:46.822Z,5.93
2023-05-09T20:42:14.451Z,4.10
2023-05-09T20:44:42.614Z,4.37
2023-05-09T20:47:12.154Z,6.90
2023-05-09T20:49:39.631Z,4.00
2023-05-09T20:52:06.984Z,5.70
2023-05-09T20:54:34.166Z,3.90
2023-05-09T20:57:01.051Z,3.17
2023-05-09T20:59:28.182Z,4.03
2023-05-09T21:01:55.861Z,3.03
2023-05-09T21:04:23.171Z,3.70
2023-05-09T21:06:49.975Z,3.53
2023-05-09T21:09:16.762Z,3.80
2023-05-09T21:11:43.530Z,2.37
2023-05-09T21:14:10.368Z,3.83
2023-05-09T21:16:37.491Z,2.63
2023-05-09T21:19:05.388Z,3.70
2023-05-09T21:21:33.199Z,1.80
2023-05-09T21:24:04.336Z,2.30
2023-05-09T21:26:31.096Z,3.37
2023-05-09T21:28:57.874Z,4.10
2023-05-09T21:31:24.680Z,2.30
2023-05-09T21:33:52.054Z,2.63
2023-05-09T21:36:18.864Z,2.17
2023-05-09T21:38:45.596Z,3.43
2023-05-09T21:41:12.454Z,5.10
2023-05-09T21:43:39.268Z,2.80
2023-05-09T21:46:06.251Z,2.87
2023-05-09T21:48:33.112Z,2.90
2023-05-09T21:51:03.967Z,1.90
2023-05-09T21:53:30.972Z,1.93
2023-05-09T21:55:57.706Z,3.03
2023-05-09T21:58:24.523Z,2.43
2023-05-09T22:00:51.427Z,3.00
2023-05-09T22:03:18.305Z,2.17
2023-05-09T22:05:45.313Z,3.00
2023-05-09T22:08:12.224Z,2.70
2023-05-09T22:10:38.962Z,2.97
2023-05-09T22:13:05.974Z,8.93
2023-05-09T22:15:33.034Z,7.17
2023-05-09T22:17:59.833Z,3.53
2023-05-09T22:20:29.148Z,4.57
2023-05-09T22:22:56.384Z,4.03
2023-05-09T22:25:25.658Z,3.63
2023-05-09T22:27:52.404Z,3.00
2023-05-09T22:30:19.197Z,3.20
2023-05-09T22:32:46.023Z,4.20
2023-05-09T22:35:12.924Z,3.77
2023-05-09T22:37:39.727Z,3.27
2023-05-09T22:40:07.231Z,3.70
2023-05-09T22:42:34.847Z,4.03
2023-05-09T22:45:01.930Z,4.33
2023-05-09T22:47:28.674Z,4.90
2023-05-09T22:49:55.882Z,4.67
2023-05-09T22:52:22.645Z,5.87
2023-05-09T22:54:49.390Z,3.57
2023-05-09T22:57:18.978Z,3.33
2023-05-09T22:59:46.192Z,3.30
2023-05-09T23:02:13.251Z,3.30
2023-05-09T23:04:40.139Z,3.50
2023-05-09T23:07:07.411Z,3.03
2023-05-09T23:09:34.873Z,2.37
2023-05-09T23:12:02.615Z,3.80
2023-05-09T23:14:29.806Z,2.20
2023-05-09T23:32:07.821Z,2.97
2023-05-09T23:34:36.172Z,2.37
2023-05-09T23:37:04.029Z,2.70
2023-05-09T23:39:31.546Z,2.00
2023-05-09T23:41:58.349Z,3.00
2023-05-09T23:44:25.691Z,4.30
2023-05-09T23:46:52.599Z,2.13
2023-05-09T23:49:19.450Z,3.03
2023-05-09T23:51:46.197Z,2.53
2023-05-09T23:54:12.877Z,3.90
2023-05-09T23:56:40.723Z,3.50
2023-05-09T23:59:07.533Z,2.97
